PWSweather.com
Personal Weather Stations
Station Observations
S56IPS
Mostec 12, MostecSI 8257

Mostec 12MostecSI 8257

Lat: 45.899181, Lon: 15.628339

Elevation: 143

Station Type: WX-2008

Latest ConditionsUpdated 12:55:02 PM GMT+01:01 Saturday, Sep 20, 2014
Currently Today's Max Today's Min Today's Average
Temperature 76.5°F24.7°C 76.5°F24.7°C 57.0°F13.9°C 62.4°F16.9°C
Dew Point 72.4°F22.4°C 72.4°F22.4°C 56.8°F13.8°C 61.8°F16.6°C
Winds Calm Calm 1.6 mph SSE2.6 kmh SSE - 0.1 mph 0.2 kmh
Wind Gusts 2.2 mph3.5 kmh 3.8 mph6.1 kmh - -
Humidity 87% 99% 86% 98%
Pressure 29.92 in1013.2 mb 29.98 in1015.2 mb 29.92 in1013.2 mb -
Hour Temp Dew Point Humidity Winds Wind Gusts Pressure Precip Precip Rate Daily Precip Total
12:55 PM 76.5°F24.7°C 72.4°F22.4°C 87% Calm Calm 2.2 mph3.5 kmh 29.92 in1013.2 mb 0.00 in0.0 mm 0.00 in/hr0.0 mm/hr 0.00 in0.0 mm
12:50 PM 75.7°F24.3°C 71.6°F22.0°C 87% Calm Calm 3.1 mph5.0 kmh 29.92 in1013.2 mb 0.00 in0.0 mm 0.00 in/hr0.0 mm/hr 0.00 in0.0 mm
12:45 PM 75.7°F24.3°C 71.3°F21.8°C 86% 0.7 mph SE1.1 kmh SE 3.1 mph5.0 kmh 29.92 in1013.2 mb 0.00 in0.0 mm 0.00 in/hr0.0 mm/hr 0.00 in0.0 mm
12:40 PM 75.7°F24.3°C 72.0°F22.2°C 88% 1.6 mph SE2.6 kmh SE 3.1 mph5.0 kmh 29.92 in1013.2 mb 0.00 in0.0 mm 0.00 in/hr0.0 mm/hr 0.00 in0.0 mm
12:35 PM 75.6°F24.2°C 71.8°F22.1°C 88% 0.7 mph SE1.1 kmh SE 2.2 mph3.5 kmh 29.93 in1013.5 mb 0.00 in0.0 mm 0.00 in/hr0.0 mm/hr 0.00 in0.0 mm
12:30 PM 75.0°F23.9°C 71.6°F22.0°C 89% Calm Calm 3.8 mph6.1 kmh 29.93 in1013.5 mb 0.00 in0.0 mm 0.00 in/hr0.0 mm/hr 0.00 in0.0 mm
12:25 PM 74.5°F23.6°C 71.1°F21.7°C 89% Calm Calm 3.8 mph6.1 kmh 29.93 in1013.5 mb 0.00 in0.0 mm 0.00 in/hr0.0 mm/hr 0.00 in0.0 mm
12:20 PM 74.5°F23.6°C 70.7°F21.5°C 88% 0.7 mph ESE1.1 kmh ESE 3.8 mph6.1 kmh 29.93 in1013.5 mb 0.00 in0.0 mm 0.00 in/hr0.0 mm/hr 0.00 in0.0 mm
12:15 PM 74.5°F23.6°C 70.7°F21.5°C 88% 0.7 mph ESE1.1 kmh ESE 3.1 mph5.0 kmh 29.93 in1013.5 mb 0.00 in0.0 mm 0.00 in/hr0.0 mm/hr 0.00 in0.0 mm
12:10 PM 74.5°F23.6°C 71.4°F21.9°C 90% Calm Calm 1.6 mph2.6 kmh 29.93 in1013.5 mb 0.00 in0.0 mm 0.00 in/hr0.0 mm/hr 0.00 in0.0 mm
12:05 PM 74.1°F23.4°C 71.4°F21.9°C 91% Calm Calm 3.1 mph5.0 kmh 29.94 in1013.9 mb 0.00 in0.0 mm 0.00 in/hr0.0 mm/hr 0.00 in0.0 mm
12:00 PM 74.1°F23.4°C 71.4°F21.9°C 91% Calm Calm 3.1 mph5.0 kmh 29.94 in1013.9 mb 0.00 in0.0 mm 0.00 in/hr0.0 mm/hr 0.00 in0.0 mm
11:55 AM 74.1°F23.4°C 71.7°F22.1°C 92% Calm Calm 2.2 mph3.5 kmh 29.94 in1013.9 mb 0.00 in0.0 mm 0.00 in/hr0.0 mm/hr 0.00 in0.0 mm
11:50 AM 73.8°F23.2°C 71.7°F22.1°C 93% Calm Calm 3.1 mph5.0 kmh 29.94 in1013.9 mb 0.00 in0.0 mm 0.00 in/hr0.0 mm/hr 0.00 in0.0 mm
11:45 AM 73.4°F23.0°C 71.3°F21.8°C 93% Calm Calm 3.1 mph5.0 kmh 29.94 in1013.9 mb 0.00 in0.0 mm 0.00 in/hr0.0 mm/hr 0.00 in0.0 mm
11:40 AM 73.2°F22.9°C 71.7°F22.1°C 95% 0.7 mph SE1.1 kmh SE 3.1 mph5.0 kmh 29.94 in1013.9 mb 0.00 in0.0 mm 0.00 in/hr0.0 mm/hr 0.00 in0.0 mm
11:35 AM 72.9°F22.7°C 71.7°F22.1°C 96% Calm Calm 3.1 mph5.0 kmh 29.94 in1013.9 mb 0.00 in0.0 mm 0.00 in/hr0.0 mm/hr 0.00 in0.0 mm
11:30 AM 72.5°F22.5°C 71.9°F22.2°C 98% 0.7 mph S1.1 kmh S 3.8 mph6.1 kmh 29.94 in1013.9 mb 0.00 in0.0 mm 0.00 in/hr0.0 mm/hr 0.00 in0.0 mm
11:25 AM 71.8°F22.1°C 70.9°F21.6°C 97% 1.6 mph SSE2.6 kmh SSE 3.8 mph6.1 kmh 29.94 in1013.9 mb 0.00 in0.0 mm 0.00 in/hr0.0 mm/hr 0.00 in0.0 mm
11:20 AM 71.6°F22.0°C 71.0°F21.7°C 98% 0.7 mph SSE1.1 kmh SSE 2.2 mph3.5 kmh 29.94 in1013.9 mb 0.00 in0.0 mm 0.00 in/hr0.0 mm/hr 0.00 in0.0 mm
11:15 AM 71.2°F21.8°C 71.0°F21.7°C 99% 0.7 mph SSE1.1 kmh SSE 2.2 mph3.5 kmh 29.94 in1013.9 mb 0.00 in0.0 mm 0.00 in/hr0.0 mm/hr 0.00 in0.0 mm
11:10 AM 70.9°F21.6°C 70.6°F21.4°C 99% Calm Calm 2.2 mph3.5 kmh 29.94 in1013.9 mb 0.00 in0.0 mm 0.00 in/hr0.0 mm/hr 0.00 in0.0 mm
11:05 AM 69.8°F21.0°C 69.5°F20.8°C 99% Calm Calm 2.2 mph3.5 kmh 29.94 in1013.9 mb 0.00 in0.0 mm 0.00 in/hr0.0 mm/hr 0.00 in0.0 mm
11:00 AM 69.8°F21.0°C 69.5°F20.8°C 99% Calm Calm 2.2 mph3.5 kmh 29.94 in1013.9 mb 0.00 in0.0 mm 0.00 in/hr0.0 mm/hr 0.00 in0.0 mm
10:55 AM 69.3°F20.7°C 69.0°F20.6°C 99% Calm Calm 2.2 mph3.5 kmh 29.94 in1013.9 mb 0.00 in0.0 mm 0.00 in/hr0.0 mm/hr 0.00 in0.0 mm
10:50 AM 68.5°F20.3°C 68.3°F20.2°C 99% Calm Calm 1.6 mph2.6 kmh 29.94 in1013.9 mb 0.00 in0.0 mm 0.00 in/hr0.0 mm/hr 0.00 in0.0 mm
10:45 AM 68.0°F20.0°C 67.7°F19.8°C 99% Calm Calm 2.2 mph3.5 kmh 29.95 in1014.2 mb 0.00 in0.0 mm 0.00 in/hr0.0 mm/hr 0.00 in0.0 mm
10:40 AM 67.3°F19.6°C 67.0°F19.4°C 99% 0.7 mph N1.1 kmh N 2.2 mph3.5 kmh 29.95 in1014.2 mb 0.00 in0.0 mm 0.00 in/hr0.0 mm/hr 0.00 in0.0 mm
10:35 AM 66.7°F19.3°C 66.5°F19.2°C 99% Calm Calm 0.7 mph1.1 kmh 29.94 in1013.9 mb 0.00 in0.0 mm 0.00 in/hr0.0 mm/hr 0.00 in0.0 mm
10:30 AM 66.4°F19.1°C 66.1°F18.9°C 99% Calm Calm 1.6 mph2.6 kmh 29.94 in1013.9 mb 0.00 in0.0 mm 0.00 in/hr0.0 mm/hr 0.00 in0.0 mm
10:25 AM 65.7°F18.7°C 65.4°F18.6°C 99% Calm Calm 1.6 mph2.6 kmh 29.95 in1014.2 mb 0.00 in0.0 mm 0.00 in/hr0.0 mm/hr 0.00 in0.0 mm
10:20 AM 65.3°F18.5°C 65.0°F18.3°C 99% Calm Calm 2.2 mph3.5 kmh 29.95 in1014.2 mb 0.00 in0.0 mm 0.00 in/hr0.0 mm/hr 0.00 in0.0 mm
10:15 AM 64.9°F18.3°C 64.7°F18.2°C 99% Calm Calm 3.1 mph5.0 kmh 29.95 in1014.2 mb 0.00 in0.0 mm 0.00 in/hr0.0 mm/hr 0.00 in0.0 mm
10:10 AM 64.9°F18.3°C 64.7°F18.2°C 99% Calm Calm 3.1 mph5.0 kmh 29.96 in1014.6 mb 0.00 in0.0 mm 0.00 in/hr0.0 mm/hr 0.00 in0.0 mm
10:05 AM 64.4°F18.0°C 64.1°F17.8°C 99% 0.7 mph SE1.1 kmh SE 2.2 mph3.5 kmh 29.96 in1014.6 mb 0.00 in0.0 mm 0.00 in/hr0.0 mm/hr 0.00 in0.0 mm
10:00 AM 64.4°F18.0°C 64.1°F17.8°C 99% 0.7 mph SE1.1 kmh SE 2.2 mph3.5 kmh 29.96 in1014.6 mb 0.00 in0.0 mm 0.00 in/hr0.0 mm/hr 0.00 in0.0 mm
09:55 AM 64.0°F17.8°C 63.8°F17.7°C 99% Calm Calm 1.6 mph2.6 kmh 29.96 in1014.6 mb 0.00 in0.0 mm 0.00 in/hr0.0 mm/hr 0.00 in0.0 mm
09:50 AM 63.5°F17.5°C 63.2°F17.3°C 99% Calm Calm 2.2 mph3.5 kmh 29.95 in1014.2 mb 0.00 in0.0 mm 0.00 in/hr0.0 mm/hr 0.00 in0.0 mm
09:45 AM 63.3°F17.4°C 63.1°F17.3°C 99% Calm Calm 2.2 mph3.5 kmh 29.95 in1014.2 mb 0.00 in0.0 mm 0.00 in/hr0.0 mm/hr 0.00 in0.0 mm
09:40 AM 63.3°F17.4°C 63.1°F17.3°C 99% Calm Calm 2.2 mph3.5 kmh 29.96 in1014.6 mb 0.00 in0.0 mm 0.00 in/hr0.0 mm/hr 0.00 in0.0 mm
09:35 AM 63.1°F17.3°C 62.9°F17.2°C 99% 0.7 mph SE1.1 kmh SE 2.2 mph3.5 kmh 29.96 in1014.6 mb 0.00 in0.0 mm 0.00 in/hr0.0 mm/hr 0.00 in0.0 mm
09:30 AM 63.1°F17.3°C 62.9°F17.2°C 99% Calm Calm -- 29.95 in1014.2 mb 0.00 in0.0 mm 0.00 in/hr0.0 mm/hr 0.00 in0.0 mm
09:25 AM 63.1°F17.3°C 62.9°F17.2°C 99% Calm Calm -- 29.95 in1014.2 mb 0.00 in0.0 mm 0.00 in/hr0.0 mm/hr 0.00 in0.0 mm
09:20 AM 63.1°F17.3°C 62.9°F17.2°C 99% Calm Calm -- 29.95 in1014.2 mb 0.00 in0.0 mm 0.00 in/hr0.0 mm/hr 0.00 in0.0 mm
09:15 AM 63.1°F17.3°C 62.9°F17.2°C 99% Calm Calm 0.7 mph1.1 kmh 29.94 in1013.9 mb 0.00 in0.0 mm 0.00 in/hr0.0 mm/hr 0.00 in0.0 mm
09:10 AM 63.1°F17.3°C 62.9°F17.2°C 99% Calm Calm 0.7 mph1.1 kmh 29.94 in1013.9 mb 0.00 in0.0 mm 0.00 in/hr0.0 mm/hr 0.00 in0.0 mm
09:05 AM 63.0°F17.2°C 62.7°F17.1°C 99% Calm Calm 1.6 mph2.6 kmh 29.94 in1013.9 mb 0.00 in0.0 mm 0.00 in/hr0.0 mm/hr 0.00 in0.0 mm
09:00 AM 63.0°F17.2°C 62.7°F17.1°C 99% Calm Calm 1.6 mph2.6 kmh 29.94 in1013.9 mb 0.00 in0.0 mm 0.00 in/hr0.0 mm/hr 0.00 in0.0 mm
08:55 AM 62.8°F17.1°C 62.5°F16.9°C 99% Calm Calm 1.6 mph2.6 kmh 29.94 in1013.9 mb 0.00 in0.0 mm 0.00 in/hr0.0 mm/hr 0.00 in0.0 mm
08:50 AM 62.6°F17.0°C 62.3°F16.8°C 99% Calm Calm 1.6 mph2.6 kmh 29.94 in1013.9 mb 0.00 in0.0 mm 0.00 in/hr0.0 mm/hr 0.00 in0.0 mm
08:45 AM 62.2°F16.8°C 62.0°F16.7°C 99% Calm Calm 0.7 mph1.1 kmh 29.93 in1013.5 mb 0.00 in0.0 mm 0.00 in/hr0.0 mm/hr 0.00 in0.0 mm
08:40 AM 62.1°F16.7°C 61.8°F16.6°C 99% Calm Calm 0.7 mph1.1 kmh 29.93 in1013.5 mb 0.00 in0.0 mm 0.00 in/hr0.0 mm/hr 0.00 in0.0 mm
08:35 AM 61.7°F16.5°C 61.4°F16.3°C 99% Calm Calm 0.7 mph1.1 kmh 29.93 in1013.5 mb 0.00 in0.0 mm 0.00 in/hr0.0 mm/hr 0.00 in0.0 mm
08:30 AM 61.5°F16.4°C 61.3°F16.3°C 99% Calm Calm 1.6 mph2.6 kmh 29.92 in1013.2 mb 0.00 in0.0 mm 0.00 in/hr0.0 mm/hr 0.00 in0.0 mm
08:25 AM 61.3°F16.3°C 61.1°F16.2°C 99% Calm Calm 1.6 mph2.6 kmh 29.92 in1013.2 mb 0.00 in0.0 mm 0.00 in/hr0.0 mm/hr 0.00 in0.0 mm
08:20 AM 61.2°F16.2°C 60.9°F16.1°C 99% 0.7 mph S1.1 kmh S 1.6 mph2.6 kmh 29.92 in1013.2 mb 0.00 in0.0 mm 0.00 in/hr0.0 mm/hr 0.00 in0.0 mm
08:15 AM 61.0°F16.1°C 60.7°F15.9°C 99% Calm Calm -- 29.92 in1013.2 mb 0.00 in0.0 mm 0.00 in/hr0.0 mm/hr 0.00 in0.0 mm
08:10 AM 60.8°F16.0°C 60.5°F15.8°C 99% Calm Calm -- 29.92 in1013.2 mb 0.00 in0.0 mm 0.00 in/hr0.0 mm/hr 0.00 in0.0 mm
08:05 AM 60.8°F16.0°C 60.5°F15.8°C 99% Calm Calm -- 29.93 in1013.5 mb 0.00 in0.0 mm 0.00 in/hr0.0 mm/hr 0.00 in0.0 mm
08:00 AM 60.8°F16.0°C 60.5°F15.8°C 99% Calm Calm -- 29.93 in1013.5 mb 0.00 in0.0 mm 0.00 in/hr0.0 mm/hr 0.00 in0.0 mm
07:55 AM 60.8°F16.0°C 60.5°F15.8°C 99% Calm Calm 0.7 mph1.1 kmh 29.93 in1013.5 mb 0.00 in0.0 mm 0.00 in/hr0.0 mm/hr 0.00 in0.0 mm
07:50 AM 60.8°F16.0°C 60.5°F15.8°C 99% Calm Calm 1.6 mph2.6 kmh 29.93 in1013.5 mb 0.00 in0.0 mm 0.00 in/hr0.0 mm/hr 0.00 in0.0 mm
07:45 AM 60.6°F15.9°C 60.4°F15.8°C 99% Calm Calm 2.2 mph3.5 kmh 29.93 in1013.5 mb 0.00 in0.0 mm 0.00 in/hr0.0 mm/hr 0.00 in0.0 mm
07:40 AM 60.4°F15.8°C 60.2°F15.7°C 99% Calm Calm 2.2 mph3.5 kmh 29.93 in1013.5 mb 0.00 in0.0 mm 0.00 in/hr0.0 mm/hr 0.00 in0.0 mm
07:35 AM 60.4°F15.8°C 60.2°F15.7°C 99% Calm Calm 1.6 mph2.6 kmh 29.93 in1013.5 mb 0.00 in0.0 mm 0.00 in/hr0.0 mm/hr 0.00 in0.0 mm
07:30 AM 60.3°F15.7°C 60.0°F15.6°C 99% Calm Calm 1.6 mph2.6 kmh 29.93 in1013.5 mb 0.00 in0.0 mm 0.00 in/hr0.0 mm/hr 0.00 in0.0 mm
07:25 AM 60.1°F15.6°C 59.8°F15.4°C 99% Calm Calm 1.6 mph2.6 kmh 29.93 in1013.5 mb 0.00 in0.0 mm 0.00 in/hr0.0 mm/hr 0.00 in0.0 mm
07:20 AM 60.1°F15.6°C 59.8°F15.4°C 99% Calm Calm 1.6 mph2.6 kmh 29.93 in1013.5 mb 0.00 in0.0 mm 0.00 in/hr0.0 mm/hr 0.00 in0.0 mm
07:15 AM 60.1°F15.6°C 59.8°F15.4°C 99% Calm Calm 1.6 mph2.6 kmh 29.93 in1013.5 mb 0.00 in0.0 mm 0.00 in/hr0.0 mm/hr 0.00 in0.0 mm
07:10 AM 59.9°F15.5°C 59.6°F15.3°C 99% Calm Calm 0.7 mph1.1 kmh 29.93 in1013.5 mb 0.00 in0.0 mm 0.00 in/hr0.0 mm/hr 0.00 in0.0 mm
07:05 AM 59.5°F15.3°C 59.3°F15.2°C 99% Calm Calm 1.6 mph2.6 kmh 29.93 in1013.5 mb 0.00 in0.0 mm 0.00 in/hr0.0 mm/hr 0.00 in0.0 mm
07:00 AM 59.5°F15.3°C 59.3°F15.2°C 99% Calm Calm 1.6 mph2.6 kmh 29.93 in1013.5 mb 0.00 in0.0 mm 0.00 in/hr0.0 mm/hr 0.00 in0.0 mm
06:55 AM 59.4°F15.2°C 59.1°F15.1°C 99% Calm Calm 1.6 mph2.6 kmh 29.94 in1013.9 mb 0.00 in0.0 mm 0.00 in/hr0.0 mm/hr 0.00 in0.0 mm
06:50 AM 59.4°F15.2°C 59.1°F15.1°C 99% Calm Calm 2.2 mph3.5 kmh 29.94 in1013.9 mb 0.00 in0.0 mm 0.00 in/hr0.0 mm/hr 0.00 in0.0 mm
06:45 AM 59.2°F15.1°C 58.9°F14.9°C 99% 0.7 mph E1.1 kmh E 2.2 mph3.5 kmh 29.93 in1013.5 mb 0.00 in0.0 mm 0.00 in/hr0.0 mm/hr 0.00 in0.0 mm
06:40 AM 59.0°F15.0°C 58.7°F14.8°C 99% Calm Calm 2.2 mph3.5 kmh 29.93 in1013.5 mb 0.00 in0.0 mm 0.00 in/hr0.0 mm/hr 0.00 in0.0 mm
06:35 AM 58.8°F14.9°C 58.6°F14.8°C 99% Calm Calm 1.6 mph2.6 kmh 29.93 in1013.5 mb 0.00 in0.0 mm 0.00 in/hr0.0 mm/hr 0.00 in0.0 mm
06:30 AM 58.6°F14.8°C 58.4°F14.7°C 99% Calm Calm 2.2 mph3.5 kmh 29.94 in1013.9 mb 0.00 in0.0 mm 0.00 in/hr0.0 mm/hr 0.00 in0.0 mm
06:25 AM 58.5°F14.7°C 58.2°F14.6°C 99% Calm Calm 2.2 mph3.5 kmh 29.93 in1013.5 mb 0.00 in0.0 mm 0.00 in/hr0.0 mm/hr 0.00 in0.0 mm
06:20 AM 58.5°F14.7°C 58.2°F14.6°C 99% 0.7 mph SE1.1 kmh SE 2.2 mph3.5 kmh 29.93 in1013.5 mb 0.00 in0.0 mm 0.00 in/hr0.0 mm/hr 0.00 in0.0 mm
06:15 AM 58.3°F14.6°C 58.0°F14.4°C 99% Calm Calm 0.7 mph1.1 kmh 29.93 in1013.5 mb 0.00 in0.0 mm 0.00 in/hr0.0 mm/hr 0.00 in0.0 mm
06:10 AM 58.1°F14.5°C 57.8°F14.3°C 99% Calm Calm -- 29.93 in1013.5 mb 0.00 in0.0 mm 0.00 in/hr0.0 mm/hr 0.00 in0.0 mm
06:05 AM 57.7°F14.3°C 57.5°F14.2°C 99% Calm Calm 0.7 mph1.1 kmh 29.93 in1013.5 mb 0.00 in0.0 mm 0.00 in/hr0.0 mm/hr 0.00 in0.0 mm
06:00 AM 57.7°F14.3°C 57.5°F14.2°C 99% Calm Calm 0.7 mph1.1 kmh 29.93 in1013.5 mb 0.00 in0.0 mm 0.00 in/hr0.0 mm/hr 0.00 in0.0 mm
05:55 AM 57.6°F14.2°C 57.3°F14.1°C 99% Calm Calm 1.6 mph2.6 kmh 29.93 in1013.5 mb 0.00 in0.0 mm 0.00 in/hr0.0 mm/hr 0.00 in0.0 mm
05:50 AM 57.4°F14.1°C 57.1°F13.9°C 99% Calm Calm 1.6 mph2.6 kmh 29.93 in1013.5 mb 0.00 in0.0 mm 0.00 in/hr0.0 mm/hr 0.00 in0.0 mm
05:45 AM 57.2°F14.0°C 56.9°F13.8°C 99% Calm Calm 1.6 mph2.6 kmh 29.93 in1013.5 mb 0.00 in0.0 mm 0.00 in/hr0.0 mm/hr 0.00 in0.0 mm
05:40 AM 57.2°F14.0°C 56.9°F13.8°C 99% 0.7 mph W1.1 kmh W 1.6 mph2.6 kmh 29.93 in1013.5 mb 0.00 in0.0 mm 0.00 in/hr0.0 mm/hr 0.00 in0.0 mm
05:35 AM 57.0°F13.9°C 56.8°F13.8°C 99% Calm Calm 1.6 mph2.6 kmh 29.93 in1013.5 mb 0.00 in0.0 mm 0.00 in/hr0.0 mm/hr 0.00 in0.0 mm
05:30 AM 57.0°F13.9°C 56.8°F13.8°C 99% Calm Calm 1.6 mph2.6 kmh 29.93 in1013.5 mb 0.00 in0.0 mm 0.00 in/hr0.0 mm/hr 0.00 in0.0 mm
05:25 AM 57.2°F14.0°C 56.9°F13.8°C 99% Calm Calm 0.7 mph1.1 kmh 29.93 in1013.5 mb 0.00 in0.0 mm 0.00 in/hr0.0 mm/hr 0.00 in0.0 mm
05:20 AM 57.4°F14.1°C 57.1°F13.9°C 99% Calm Calm 0.7 mph1.1 kmh 29.93 in1013.5 mb 0.00 in0.0 mm 0.00 in/hr0.0 mm/hr 0.00 in0.0 mm
05:15 AM 57.6°F14.2°C 57.3°F14.1°C 99% Calm Calm -- 29.94 in1013.9 mb 0.00 in0.0 mm 0.00 in/hr0.0 mm/hr 0.00 in0.0 mm
05:10 AM 57.7°F14.3°C 57.5°F14.2°C 99% Calm Calm -- 29.94 in1013.9 mb 0.00 in0.0 mm 0.00 in/hr0.0 mm/hr 0.00 in0.0 mm
05:05 AM 57.7°F14.3°C 57.5°F14.2°C 99% Calm Calm 0.7 mph1.1 kmh 29.94 in1013.9 mb 0.00 in0.0 mm 0.00 in/hr0.0 mm/hr 0.00 in0.0 mm
05:00 AM 57.7°F14.3°C 57.5°F14.2°C 99% Calm Calm 0.7 mph1.1 kmh 29.93 in1013.5 mb 0.00 in0.0 mm 0.00 in/hr0.0 mm/hr 0.00 in0.0 mm
04:55 AM 57.7°F14.3°C 57.5°F14.2°C 99% Calm Calm 0.7 mph1.1 kmh 29.94 in1013.9 mb 0.00 in0.0 mm 0.00 in/hr0.0 mm/hr 0.00 in0.0 mm
04:50 AM 57.7°F14.3°C 57.5°F14.2°C 99% Calm Calm 0.7 mph1.1 kmh 29.94 in1013.9 mb 0.00 in0.0 mm 0.00 in/hr0.0 mm/hr 0.00 in0.0 mm
04:45 AM 57.9°F14.4°C 57.7°F14.3°C 99% Calm Calm 1.6 mph2.6 kmh 29.94 in1013.9 mb 0.00 in0.0 mm 0.00 in/hr0.0 mm/hr 0.00 in0.0 mm
04:40 AM 57.9°F14.4°C 57.7°F14.3°C 99% Calm Calm 1.6 mph2.6 kmh 29.95 in1014.2 mb 0.00 in0.0 mm 0.00 in/hr0.0 mm/hr 0.00 in0.0 mm
04:35 AM 58.1°F14.5°C 57.8°F14.3°C 99% Calm Calm 1.6 mph2.6 kmh 29.94 in1013.9 mb 0.00 in0.0 mm 0.00 in/hr0.0 mm/hr 0.00 in0.0 mm
04:30 AM 58.1°F14.5°C 57.8°F14.3°C 99% Calm Calm 1.6 mph2.6 kmh 29.94 in1013.9 mb 0.00 in0.0 mm 0.00 in/hr0.0 mm/hr 0.00 in0.0 mm
04:25 AM 58.1°F14.5°C 57.8°F14.3°C 99% Calm Calm 1.6 mph2.6 kmh 29.94 in1013.9 mb 0.00 in0.0 mm 0.00 in/hr0.0 mm/hr 0.00 in0.0 mm
04:20 AM 58.3°F14.6°C 58.0°F14.4°C 99% Calm Calm 1.6 mph2.6 kmh 29.94 in1013.9 mb 0.00 in0.0 mm 0.00 in/hr0.0 mm/hr 0.00 in0.0 mm
04:15 AM 58.3°F14.6°C 58.0°F14.4°C 99% Calm Calm 1.6 mph2.6 kmh 29.95 in1014.2 mb 0.00 in0.0 mm 0.00 in/hr0.0 mm/hr 0.00 in0.0 mm
04:10 AM 58.5°F14.7°C 58.2°F14.6°C 99% Calm Calm 1.6 mph2.6 kmh 29.95 in1014.2 mb 0.00 in0.0 mm 0.00 in/hr0.0 mm/hr 0.00 in0.0 mm
04:05 AM 58.3°F14.6°C 58.0°F14.4°C 99% Calm Calm 0.7 mph1.1 kmh 29.96 in1014.6 mb 0.00 in0.0 mm 0.00 in/hr0.0 mm/hr 0.00 in0.0 mm
04:00 AM 58.3°F14.6°C 58.0°F14.4°C 99% Calm Calm 0.7 mph1.1 kmh 29.96 in1014.6 mb 0.00 in0.0 mm 0.00 in/hr0.0 mm/hr 0.00 in0.0 mm
03:55 AM 58.3°F14.6°C 58.0°F14.4°C 99% Calm Calm 1.6 mph2.6 kmh 29.96 in1014.6 mb 0.00 in0.0 mm 0.00 in/hr0.0 mm/hr 0.00 in0.0 mm
03:50 AM 58.5°F14.7°C 58.2°F14.6°C 99% Calm Calm 1.6 mph2.6 kmh 29.96 in1014.6 mb 0.00 in0.0 mm 0.00 in/hr0.0 mm/hr 0.00 in0.0 mm
03:45 AM 58.6°F14.8°C 58.4°F14.7°C 99% Calm Calm 1.6 mph2.6 kmh 29.96 in1014.6 mb 0.00 in0.0 mm 0.00 in/hr0.0 mm/hr 0.00 in0.0 mm
03:40 AM 58.6°F14.8°C 58.4°F14.7°C 99% Calm Calm 1.6 mph2.6 kmh 29.96 in1014.6 mb 0.00 in0.0 mm 0.00 in/hr0.0 mm/hr 0.00 in0.0 mm
03:35 AM 58.6°F14.8°C 58.4°F14.7°C 99% Calm Calm 1.6 mph2.6 kmh 29.96 in1014.6 mb 0.00 in0.0 mm 0.00 in/hr0.0 mm/hr 0.00 in0.0 mm
03:30 AM 58.6°F14.8°C 58.4°F14.7°C 99% Calm Calm 1.6 mph2.6 kmh 29.96 in1014.6 mb 0.00 in0.0 mm 0.00 in/hr0.0 mm/hr 0.00 in0.0 mm
03:25 AM 58.5°F14.7°C 58.2°F14.6°C 99% Calm Calm 1.6 mph2.6 kmh 29.96 in1014.6 mb 0.00 in0.0 mm 0.00 in/hr0.0 mm/hr 0.00 in0.0 mm
03:20 AM 58.5°F14.7°C 58.2°F14.6°C 99% Calm Calm 1.6 mph2.6 kmh 29.96 in1014.6 mb 0.00 in0.0 mm 0.00 in/hr0.0 mm/hr 0.00 in0.0 mm
03:15 AM 58.5°F14.7°C 58.2°F14.6°C 99% Calm Calm 1.6 mph2.6 kmh 29.96 in1014.6 mb 0.00 in0.0 mm 0.00 in/hr0.0 mm/hr 0.00 in0.0 mm
03:10 AM 58.6°F14.8°C 58.4°F14.7°C 99% Calm Calm 0.7 mph1.1 kmh 29.96 in1014.6 mb 0.00 in0.0 mm 0.00 in/hr0.0 mm/hr 0.00 in0.0 mm
03:05 AM 58.6°F14.8°C 58.4°F14.7°C 99% Calm Calm 1.6 mph2.6 kmh 29.96 in1014.6 mb 0.00 in0.0 mm 0.00 in/hr0.0 mm/hr 0.00 in0.0 mm
03:00 AM 58.6°F14.8°C 58.4°F14.7°C 99% Calm Calm 1.6 mph2.6 kmh 29.96 in1014.6 mb 0.00 in0.0 mm 0.00 in/hr0.0 mm/hr 0.00 in0.0 mm
02:55 AM 59.0°F15.0°C 58.7°F14.8°C 99% Calm Calm 1.6 mph2.6 kmh 29.96 in1014.6 mb 0.00 in0.0 mm 0.00 in/hr0.0 mm/hr 0.00 in0.0 mm
02:50 AM 59.0°F15.0°C 58.7°F14.8°C 99% Calm Calm 1.6 mph2.6 kmh 29.96 in1014.6 mb 0.00 in0.0 mm 0.00 in/hr0.0 mm/hr 0.00 in0.0 mm
02:45 AM 59.0°F15.0°C 58.7°F14.8°C 99% Calm Calm 1.6 mph2.6 kmh 29.96 in1014.6 mb 0.00 in0.0 mm 0.00 in/hr0.0 mm/hr 0.00 in0.0 mm
02:40 AM 59.2°F15.1°C 58.9°F14.9°C 99% Calm Calm 1.6 mph2.6 kmh 29.96 in1014.6 mb 0.00 in0.0 mm 0.00 in/hr0.0 mm/hr 0.00 in0.0 mm
02:35 AM 59.4°F15.2°C 59.1°F15.1°C 99% Calm Calm 1.6 mph2.6 kmh 29.96 in1014.6 mb 0.00 in0.0 mm 0.00 in/hr0.0 mm/hr 0.00 in0.0 mm
02:30 AM 59.4°F15.2°C 59.1°F15.1°C 99% Calm Calm 0.7 mph1.1 kmh 29.97 in1014.9 mb 0.00 in0.0 mm 0.00 in/hr0.0 mm/hr 0.00 in0.0 mm
02:25 AM 59.4°F15.2°C 59.1°F15.1°C 99% Calm Calm 1.6 mph2.6 kmh 29.97 in1014.9 mb 0.00 in0.0 mm 0.00 in/hr0.0 mm/hr 0.00 in0.0 mm
02:20 AM 59.4°F15.2°C 59.1°F15.1°C 99% Calm Calm 2.2 mph3.5 kmh 29.96 in1014.6 mb 0.00 in0.0 mm 0.00 in/hr0.0 mm/hr 0.00 in0.0 mm
02:15 AM 59.5°F15.3°C 59.3°F15.2°C 99% Calm Calm 2.2 mph3.5 kmh 29.97 in1014.9 mb 0.00 in0.0 mm 0.00 in/hr0.0 mm/hr 0.00 in0.0 mm
02:10 AM 59.5°F15.3°C 59.3°F15.2°C 99% Calm Calm 2.2 mph3.5 kmh 29.96 in1014.6 mb 0.00 in0.0 mm 0.00 in/hr0.0 mm/hr 0.00 in0.0 mm
02:05 AM 59.4°F15.2°C 59.1°F15.1°C 99% Calm Calm 1.6 mph2.6 kmh 29.97 in1014.9 mb 0.00 in0.0 mm 0.00 in/hr0.0 mm/hr 0.00 in0.0 mm
02:00 AM 59.4°F15.2°C 59.1°F15.1°C 99% Calm Calm 1.6 mph2.6 kmh 29.97 in1014.9 mb 0.00 in0.0 mm 0.00 in/hr0.0 mm/hr 0.00 in0.0 mm
01:55 AM 59.5°F15.3°C 59.3°F15.2°C 99% Calm Calm 1.6 mph2.6 kmh 29.97 in1014.9 mb 0.00 in0.0 mm 0.00 in/hr0.0 mm/hr 0.00 in0.0 mm
01:50 AM 59.4°F15.2°C 59.1°F15.1°C 99% Calm Calm 1.6 mph2.6 kmh 29.97 in1014.9 mb 0.00 in0.0 mm 0.00 in/hr0.0 mm/hr 0.00 in0.0 mm
01:45 AM 59.4°F15.2°C 59.1°F15.1°C 99% Calm Calm 1.6 mph2.6 kmh 29.98 in1015.2 mb 0.00 in0.0 mm 0.00 in/hr0.0 mm/hr 0.00 in0.0 mm
01:40 AM 59.4°F15.2°C 59.1°F15.1°C 99% Calm Calm 1.6 mph2.6 kmh 29.98 in1015.2 mb 0.00 in0.0 mm 0.00 in/hr0.0 mm/hr 0.00 in0.0 mm
01:35 AM 59.4°F15.2°C 59.1°F15.1°C 99% Calm Calm 2.2 mph3.5 kmh 29.98 in1015.2 mb 0.00 in0.0 mm 0.00 in/hr0.0 mm/hr 0.00 in0.0 mm
01:30 AM 59.4°F15.2°C 59.1°F15.1°C 99% Calm Calm 2.2 mph3.5 kmh 29.98 in1015.2 mb 0.00 in0.0 mm 0.00 in/hr0.0 mm/hr 0.00 in0.0 mm
01:25 AM 59.7°F15.4°C 59.5°F15.3°C 99% 0.7 mph SE1.1 kmh SE 2.2 mph3.5 kmh 29.98 in1015.2 mb 0.00 in0.0 mm 0.00 in/hr0.0 mm/hr 0.00 in0.0 mm
01:20 AM 59.7°F15.4°C 59.5°F15.3°C 99% Calm Calm 1.6 mph2.6 kmh 29.98 in1015.2 mb 0.00 in0.0 mm 0.00 in/hr0.0 mm/hr 0.00 in0.0 mm
01:15 AM 60.1°F15.6°C 59.8°F15.4°C 99% Calm Calm 1.6 mph2.6 kmh 29.97 in1014.9 mb 0.00 in0.0 mm 0.00 in/hr0.0 mm/hr 0.00 in0.0 mm
01:10 AM 60.3°F15.7°C 60.0°F15.6°C 99% Calm Calm 1.6 mph2.6 kmh 29.97 in1014.9 mb 0.00 in0.0 mm 0.00 in/hr0.0 mm/hr 0.00 in0.0 mm
01:05 AM 60.1°F15.6°C 59.8°F15.4°C 99% Calm Calm -- 29.97 in1014.9 mb 0.00 in0.0 mm 0.00 in/hr0.0 mm/hr 0.00 in0.0 mm
01:00 AM 60.1°F15.6°C 59.8°F15.4°C 99% Calm Calm -- 29.98 in1015.2 mb 0.00 in0.0 mm 0.00 in/hr0.0 mm/hr 0.00 in0.0 mm
12:55 AM 60.1°F15.6°C 59.8°F15.4°C 99% Calm Calm 2.2 mph3.5 kmh 29.98 in1015.2 mb 0.00 in0.0 mm 0.00 in/hr0.0 mm/hr 0.00 in0.0 mm
12:50 AM 60.1°F15.6°C 59.8°F15.4°C 99% Calm Calm 2.2 mph3.5 kmh 29.98 in1015.2 mb 0.00 in0.0 mm 0.00 in/hr0.0 mm/hr 0.00 in0.0 mm
12:45 AM 60.4°F15.8°C 60.2°F15.7°C 99% 0.7 mph SE1.1 kmh SE 1.6 mph2.6 kmh 29.97 in1014.9 mb 0.00 in0.0 mm 0.00 in/hr0.0 mm/hr 0.00 in0.0 mm
12:40 AM 60.8°F16.0°C 60.5°F15.8°C 99% Calm Calm 0.7 mph1.1 kmh 29.98 in1015.2 mb 0.00 in0.0 mm 0.00 in/hr0.0 mm/hr 0.00 in0.0 mm
12:35 AM 60.8°F16.0°C 60.5°F15.8°C 99% Calm Calm 0.7 mph1.1 kmh 29.97 in1014.9 mb 0.00 in0.0 mm 0.00 in/hr0.0 mm/hr 0.00 in0.0 mm
12:30 AM 61.0°F16.1°C 60.7°F15.9°C 99% Calm Calm 0.7 mph1.1 kmh 29.98 in1015.2 mb 0.00 in0.0 mm 0.00 in/hr0.0 mm/hr 0.00 in0.0 mm
12:25 AM 61.0°F16.1°C 60.7°F15.9°C 99% Calm Calm 0.7 mph1.1 kmh 29.98 in1015.2 mb 0.00 in0.0 mm 0.00 in/hr0.0 mm/hr 0.00 in0.0 mm
12:20 AM 61.0°F16.1°C 60.7°F15.9°C 99% Calm Calm 1.6 mph2.6 kmh 29.97 in1014.9 mb 0.00 in0.0 mm 0.00 in/hr0.0 mm/hr 0.00 in0.0 mm
12:15 AM 61.2°F16.2°C 60.9°F16.1°C 99% Calm Calm 1.6 mph2.6 kmh 29.98 in1015.2 mb 0.00 in0.0 mm 0.00 in/hr0.0 mm/hr 0.00 in0.0 mm
12:10 AM 61.3°F16.3°C 61.1°F16.2°C 99% Calm Calm 1.6 mph2.6 kmh 29.97 in1014.9 mb 0.00 in0.0 mm 0.00 in/hr0.0 mm/hr 0.00 in0.0 mm
12:05 AM 61.5°F16.4°C 61.3°F16.3°C 99% Calm Calm 1.6 mph2.6 kmh 29.98 in1015.2 mb 0.00 in0.0 mm 0.00 in/hr0.0 mm/hr 0.00 in0.0 mm
12:00 AM 61.5°F16.4°C 61.3°F16.3°C 99% Calm Calm 1.6 mph2.6 kmh 29.98 in1015.2 mb 0.00 in0.0 mm 0.00 in/hr0.0 mm/hr 0.00 in0.0 mm